sensor_id;sensor_type;location;lat;lon;timestamp;P1;durP1;ratioP1;P2;durP2;ratioP2
21181;SDS011;10749;46.296;7.524;2023-04-24T00:00:17;1.67;;;0.33;;
21181;SDS011;10749;46.296;7.524;2023-04-24T00:02:43;0.30;;;0.30;;
21181;SDS011;10749;46.296;7.524;2023-04-24T00:05:13;0.57;;;0.27;;
21181;SDS011;10749;46.296;7.524;2023-04-24T00:07:40;0.70;;;0.30;;
21181;SDS011;10749;46.296;7.524;2023-04-24T00:10:06;0.70;;;0.30;;
21181;SDS011;10749;46.296;7.524;2023-04-24T00:12:32;1.33;;;0.30;;
21181;SDS011;10749;46.296;7.524;2023-04-24T00:14:57;0.60;;;0.30;;
21181;SDS011;10749;46.296;7.524;2023-04-24T00:17:22;1.37;;;0.27;;
21181;SDS011;10749;46.296;7.524;2023-04-24T00:19:48;0.40;;;0.20;;
21181;SDS011;10749;46.296;7.524;2023-04-24T00:22:13;0.70;;;0.40;;
21181;SDS011;10749;46.296;7.524;2023-04-24T00:24:39;0.97;;;0.70;;
21181;SDS011;10749;46.296;7.524;2023-04-24T00:27:04;0.63;;;0.30;;
21181;SDS011;10749;46.296;7.524;2023-04-24T00:29:30;1.73;;;0.30;;
21181;SDS011;10749;46.296;7.524;2023-04-24T00:31:55;0.30;;;0.30;;
21181;SDS011;10749;46.296;7.524;2023-04-24T00:34:20;0.60;;;0.40;;
21181;SDS011;10749;46.296;7.524;2023-04-24T00:36:46;0.53;;;0.20;;
21181;SDS011;10749;46.296;7.524;2023-04-24T00:39:11;1.73;;;0.30;;
21181;SDS011;10749;46.296;7.524;2023-04-24T00:41:36;0.60;;;0.50;;
21181;SDS011;10749;46.296;7.524;2023-04-24T00:44:02;0.50;;;0.30;;
21181;SDS011;10749;46.296;7.524;2023-04-24T00:46:27;2.60;;;0.40;;
21181;SDS011;10749;46.296;7.524;2023-04-24T00:48:53;0.97;;;0.30;;
21181;SDS011;10749;46.296;7.524;2023-04-24T00:51:19;0.77;;;0.30;;
21181;SDS011;10749;46.296;7.524;2023-04-24T00:53:45;0.97;;;0.40;;
21181;SDS011;10749;46.296;7.524;2023-04-24T00:56:11;0.50;;;0.40;;
21181;SDS011;10749;46.296;7.524;2023-04-24T00:58:36;0.90;;;0.40;;
21181;SDS011;10749;46.296;7.524;2023-04-24T01:01:02;2.40;;;0.50;;
21181;SDS011;10749;46.296;7.524;2023-04-24T01:03:31;1.57;;;0.50;;
21181;SDS011;10749;46.296;7.524;2023-04-24T01:05:58;1.37;;;0.50;;
21181;SDS011;10749;46.296;7.524;2023-04-24T01:08:24;0.70;;;0.50;;
21181;SDS011;10749;46.296;7.524;2023-04-24T01:10:51;0.50;;;0.47;;
21181;SDS011;10749;46.296;7.524;2023-04-24T01:13:18;1.03;;;0.50;;
21181;SDS011;10749;46.296;7.524;2023-04-24T01:15:44;0.60;;;0.47;;
21181;SDS011;10749;46.296;7.524;2023-04-24T01:18:09;0.67;;;0.40;;
21181;SDS011;10749;46.296;7.524;2023-04-24T01:20:35;1.27;;;0.50;;
21181;SDS011;10749;46.296;7.524;2023-04-24T01:23:04;0.60;;;0.40;;
21181;SDS011;10749;46.296;7.524;2023-04-24T01:25:30;2.37;;;0.80;;
21181;SDS011;10749;46.296;7.524;2023-04-24T01:27:56;0.63;;;0.50;;
21181;SDS011;10749;46.296;7.524;2023-04-24T01:30:22;1.60;;;0.63;;
21181;SDS011;10749;46.296;7.524;2023-04-24T01:32:47;0.90;;;0.53;;
21181;SDS011;10749;46.296;7.524;2023-04-24T01:35:13;0.70;;;0.60;;
21181;SDS011;10749;46.296;7.524;2023-04-24T01:37:39;0.97;;;0.60;;
21181;SDS011;10749;46.296;7.524;2023-04-24T01:40:05;0.60;;;0.50;;
21181;SDS011;10749;46.296;7.524;2023-04-24T01:42:31;1.10;;;0.60;;
21181;SDS011;10749;46.296;7.524;2023-04-24T01:44:57;1.20;;;0.80;;
21181;SDS011;10749;46.296;7.524;2023-04-24T01:47:23;1.00;;;0.80;;
21181;SDS011;10749;46.296;7.524;2023-04-24T01:49:49;0.60;;;0.53;;
21181;SDS011;10749;46.296;7.524;2023-04-24T01:52:15;1.43;;;0.70;;
21181;SDS011;10749;46.296;7.524;2023-04-24T01:54:42;1.20;;;0.80;;
21181;SDS011;10749;46.296;7.524;2023-04-24T01:57:08;1.33;;;0.90;;
21181;SDS011;10749;46.296;7.524;2023-04-24T01:59:33;1.10;;;0.60;;
21181;SDS011;10749;46.296;7.524;2023-04-24T02:01:59;3.87;;;1.13;;
21181;SDS011;10749;46.296;7.524;2023-04-24T02:04:25;2.93;;;0.90;;
21181;SDS011;10749;46.296;7.524;2023-04-24T02:06:50;1.00;;;0.80;;
21181;SDS011;10749;46.296;7.524;2023-04-24T02:09:16;1.20;;;0.67;;
21181;SDS011;10749;46.296;7.524;2023-04-24T02:11:41;0.90;;;0.70;;
21181;SDS011;10749;46.296;7.524;2023-04-24T02:14:06;1.13;;;0.70;;
21181;SDS011;10749;46.296;7.524;2023-04-24T02:16:31;1.20;;;0.80;;
21181;SDS011;10749;46.296;7.524;2023-04-24T02:18:57;1.40;;;0.90;;
21181;SDS011;10749;46.296;7.524;2023-04-24T02:21:23;0.80;;;0.80;;
21181;SDS011;10749;46.296;7.524;2023-04-24T02:23:48;1.23;;;1.03;;
21181;SDS011;10749;46.296;7.524;2023-04-24T02:26:14;1.30;;;0.83;;
21181;SDS011;10749;46.296;7.524;2023-04-24T02:28:40;1.17;;;0.80;;
21181;SDS011;10749;46.296;7.524;2023-04-24T02:31:05;0.80;;;0.70;;
21181;SDS011;10749;46.296;7.524;2023-04-24T02:33:31;1.23;;;0.83;;
21181;SDS011;10749;46.296;7.524;2023-04-24T02:35:56;4.30;;;1.23;;
21181;SDS011;10749;46.296;7.524;2023-04-24T02:38:21;2.10;;;0.60;;
21181;SDS011;10749;46.296;7.524;2023-04-24T02:40:47;0.80;;;0.67;;
21181;SDS011;10749;46.296;7.524;2023-04-24T02:43:12;1.40;;;0.63;;
21181;SDS011;10749;46.296;7.524;2023-04-24T02:45:37;0.90;;;0.60;;
21181;SDS011;10749;46.296;7.524;2023-04-24T02:48:03;1.30;;;0.70;;
21181;SDS011;10749;46.296;7.524;2023-04-24T02:50:28;1.17;;;0.70;;
21181;SDS011;10749;46.296;7.524;2023-04-24T02:52:54;1.23;;;0.80;;
21181;SDS011;10749;46.296;7.524;2023-04-24T02:55:19;0.80;;;0.53;;
21181;SDS011;10749;46.296;7.524;2023-04-24T02:57:44;0.50;;;0.50;;
21181;SDS011;10749;46.296;7.524;2023-04-24T03:00:10;0.93;;;0.60;;
21181;SDS011;10749;46.296;7.524;2023-04-24T03:02:36;1.20;;;0.70;;
21181;SDS011;10749;46.296;7.524;2023-04-24T03:05:01;0.77;;;0.60;;
21181;SDS011;10749;46.296;7.524;2023-04-24T03:07:27;1.20;;;0.67;;
21181;SDS011;10749;46.296;7.524;2023-04-24T03:09:52;0.83;;;0.70;;
21181;SDS011;10749;46.296;7.524;2023-04-24T03:12:17;0.50;;;0.50;;
21181;SDS011;10749;46.296;7.524;2023-04-24T03:14:43;1.17;;;0.70;;
21181;SDS011;10749;46.296;7.524;2023-04-24T03:17:08;2.90;;;0.80;;
21181;SDS011;10749;46.296;7.524;2023-04-24T03:19:34;0.57;;;0.57;;
21181;SDS011;10749;46.296;7.524;2023-04-24T03:22:01;1.70;;;0.67;;
21181;SDS011;10749;46.296;7.524;2023-04-24T03:24:27;2.70;;;0.80;;
21181;SDS011;10749;46.296;7.524;2023-04-24T03:26:53;1.53;;;0.70;;
21181;SDS011;10749;46.296;7.524;2023-04-24T03:29:18;2.13;;;0.90;;
21181;SDS011;10749;46.296;7.524;2023-04-24T03:31:44;2.63;;;0.80;;
21181;SDS011;10749;46.296;7.524;2023-04-24T03:34:09;1.37;;;1.00;;
21181;SDS011;10749;46.296;7.524;2023-04-24T03:36:35;2.07;;;0.87;;
21181;SDS011;10749;46.296;7.524;2023-04-24T03:39:00;1.60;;;0.63;;
21181;SDS011;10749;46.296;7.524;2023-04-24T03:41:25;3.37;;;0.93;;
21181;SDS011;10749;46.296;7.524;2023-04-24T03:43:50;1.00;;;0.70;;
21181;SDS011;10749;46.296;7.524;2023-04-24T03:46:16;0.73;;;0.67;;
21181;SDS011;10749;46.296;7.524;2023-04-24T03:48:41;0.57;;;0.53;;
21181;SDS011;10749;46.296;7.524;2023-04-24T03:51:06;1.70;;;0.90;;
21181;SDS011;10749;46.296;7.524;2023-04-24T03:53:31;2.37;;;0.90;;
21181;SDS011;10749;46.296;7.524;2023-04-24T03:55:57;0.90;;;0.90;;
21181;SDS011;10749;46.296;7.524;2023-04-24T03:58:22;0.70;;;0.60;;
21181;SDS011;10749;46.296;7.524;2023-04-24T04:00:47;1.10;;;0.80;;
21181;SDS011;10749;46.296;7.524;2023-04-24T04:03:13;0.80;;;0.80;;
21181;SDS011;10749;46.296;7.524;2023-04-24T04:05:39;0.80;;;0.73;;
21181;SDS011;10749;46.296;7.524;2023-04-24T04:08:04;0.77;;;0.70;;
21181;SDS011;10749;46.296;7.524;2023-04-24T04:10:30;1.07;;;0.80;;
21181;SDS011;10749;46.296;7.524;2023-04-24T04:12:56;2.47;;;0.90;;
21181;SDS011;10749;46.296;7.524;2023-04-24T04:15:21;1.43;;;0.80;;
21181;SDS011;10749;46.296;7.524;2023-04-24T04:17:46;1.67;;;0.77;;
21181;SDS011;10749;46.296;7.524;2023-04-24T04:20:12;1.33;;;0.90;;
21181;SDS011;10749;46.296;7.524;2023-04-24T04:22:37;0.93;;;0.90;;
21181;SDS011;10749;46.296;7.524;2023-04-24T04:25:03;1.83;;;0.70;;
21181;SDS011;10749;46.296;7.524;2023-04-24T04:27:29;0.83;;;0.80;;
21181;SDS011;10749;46.296;7.524;2023-04-24T04:29:57;1.93;;;0.90;;
21181;SDS011;10749;46.296;7.524;2023-04-24T04:32:29;1.20;;;0.90;;
21181;SDS011;10749;46.296;7.524;2023-04-24T04:34:55;0.87;;;0.87;;
21181;SDS011;10749;46.296;7.524;2023-04-24T04:37:20;1.63;;;1.00;;
21181;SDS011;10749;46.296;7.524;2023-04-24T04:39:45;1.30;;;1.00;;
21181;SDS011;10749;46.296;7.524;2023-04-24T04:42:11;1.40;;;0.90;;
21181;SDS011;10749;46.296;7.524;2023-04-24T04:44:36;2.60;;;1.00;;
21181;SDS011;10749;46.296;7.524;2023-04-24T04:47:03;1.57;;;0.97;;
21181;SDS011;10749;46.296;7.524;2023-04-24T04:49:30;2.03;;;1.10;;
21181;SDS011;10749;46.296;7.524;2023-04-24T04:51:59;2.40;;;1.07;;
21181;SDS011;10749;46.296;7.524;2023-04-24T04:54:24;1.40;;;1.10;;
21181;SDS011;10749;46.296;7.524;2023-04-24T04:56:50;1.30;;;1.20;;
21181;SDS011;10749;46.296;7.524;2023-04-24T04:59:15;1.80;;;1.13;;
21181;SDS011;10749;46.296;7.524;2023-04-24T05:01:41;1.40;;;1.13;;
21181;SDS011;10749;46.296;7.524;2023-04-24T05:04:06;2.40;;;1.20;;
21181;SDS011;10749;46.296;7.524;2023-04-24T05:06:31;1.57;;;1.47;;
21181;SDS011;10749;46.296;7.524;2023-04-24T05:08:57;2.03;;;1.33;;
21181;SDS011;10749;46.296;7.524;2023-04-24T05:11:22;1.93;;;1.60;;
21181;SDS011;10749;46.296;7.524;2023-04-24T05:13:48;1.83;;;1.20;;
21181;SDS011;10749;46.296;7.524;2023-04-24T05:16:13;2.70;;;1.23;;
21181;SDS011;10749;46.296;7.524;2023-04-24T05:18:38;1.30;;;1.20;;
21181;SDS011;10749;46.296;7.524;2023-04-24T05:21:04;1.30;;;1.20;;
21181;SDS011;10749;46.296;7.524;2023-04-24T05:23:29;2.53;;;1.20;;
21181;SDS011;10749;46.296;7.524;2023-04-24T05:25:54;1.37;;;1.20;;
21181;SDS011;10749;46.296;7.524;2023-04-24T05:28:20;1.63;;;1.20;;
21181;SDS011;10749;46.296;7.524;2023-04-24T05:30:46;1.83;;;1.40;;
21181;SDS011;10749;46.296;7.524;2023-04-24T05:33:11;3.60;;;1.13;;
21181;SDS011;10749;46.296;7.524;2023-04-24T05:35:36;1.20;;;1.10;;
21181;SDS011;10749;46.296;7.524;2023-04-24T05:38:02;2.13;;;1.10;;
21181;SDS011;10749;46.296;7.524;2023-04-24T05:40:28;1.50;;;1.20;;
21181;SDS011;10749;46.296;7.524;2023-04-24T05:42:53;3.60;;;1.20;;
21181;SDS011;10749;46.296;7.524;2023-04-24T05:45:18;2.50;;;1.70;;
21181;SDS011;10749;46.296;7.524;2023-04-24T05:47:44;2.03;;;1.30;;
21181;SDS011;10749;46.296;7.524;2023-04-24T05:50:10;1.53;;;1.00;;
21181;SDS011;10749;46.296;7.524;2023-04-24T05:52:35;1.63;;;1.20;;
21181;SDS011;10749;46.296;7.524;2023-04-24T05:55:01;2.97;;;1.23;;
21181;SDS011;10749;46.296;7.524;2023-04-24T05:57:26;1.40;;;1.00;;
21181;SDS011;10749;46.296;7.524;2023-04-24T05:59:51;2.93;;;1.00;;
21181;SDS011;10749;46.296;7.524;2023-04-24T06:02:16;1.20;;;1.00;;
21181;SDS011;10749;46.296;7.524;2023-04-24T06:04:42;1.10;;;0.90;;
21181;SDS011;10749;46.296;7.524;2023-04-24T06:07:08;1.83;;;1.03;;
21181;SDS011;10749;46.296;7.524;2023-04-24T06:09:35;1.40;;;0.97;;
21181;SDS011;10749;46.296;7.524;2023-04-24T06:12:01;1.47;;;1.00;;
21181;SDS011;10749;46.296;7.524;2023-04-24T06:14:27;1.10;;;0.90;;
21181;SDS011;10749;46.296;7.524;2023-04-24T06:16:52;1.90;;;1.00;;
21181;SDS011;10749;46.296;7.524;2023-04-24T06:19:18;2.67;;;1.20;;
21181;SDS011;10749;46.296;7.524;2023-04-24T06:21:43;1.30;;;1.20;;
21181;SDS011;10749;46.296;7.524;2023-04-24T06:24:08;1.80;;;0.90;;
21181;SDS011;10749;46.296;7.524;2023-04-24T06:26:34;1.90;;;1.17;;
21181;SDS011;10749;46.296;7.524;2023-04-24T06:28:59;0.80;;;0.67;;
21181;SDS011;10749;46.296;7.524;2023-04-24T06:31:25;1.40;;;1.00;;
21181;SDS011;10749;46.296;7.524;2023-04-24T06:33:50;0.93;;;0.83;;
21181;SDS011;10749;46.296;7.524;2023-04-24T06:36:16;1.50;;;1.17;;
21181;SDS011;10749;46.296;7.524;2023-04-24T06:38:42;2.47;;;1.40;;
21181;SDS011;10749;46.296;7.524;2023-04-24T06:41:07;1.50;;;1.27;;
21181;SDS011;10749;46.296;7.524;2023-04-24T06:43:32;1.37;;;1.00;;
21181;SDS011;10749;46.296;7.524;2023-04-24T06:45:58;1.83;;;1.20;;
21181;SDS011;10749;46.296;7.524;2023-04-24T06:48:25;2.43;;;1.00;;
21181;SDS011;10749;46.296;7.524;2023-04-24T06:50:50;1.20;;;1.10;;
21181;SDS011;10749;46.296;7.524;2023-04-24T06:53:16;0.77;;;0.77;;
21181;SDS011;10749;46.296;7.524;2023-04-24T06:55:41;1.50;;;1.00;;
21181;SDS011;10749;46.296;7.524;2023-04-24T06:58:08;1.10;;;1.00;;
21181;SDS011;10749;46.296;7.524;2023-04-24T07:00:33;2.77;;;0.90;;
21181;SDS011;10749;46.296;7.524;2023-04-24T07:02:59;2.00;;;1.00;;
21181;SDS011;10749;46.296;7.524;2023-04-24T07:05:24;3.07;;;0.70;;
21181;SDS011;10749;46.296;7.524;2023-04-24T07:07:50;1.20;;;0.70;;
21181;SDS011;10749;46.296;7.524;2023-04-24T07:10:16;1.10;;;0.70;;
21181;SDS011;10749;46.296;7.524;2023-04-24T07:12:41;2.10;;;0.70;;
21181;SDS011;10749;46.296;7.524;2023-04-24T07:15:07;1.23;;;0.70;;
21181;SDS011;10749;46.296;7.524;2023-04-24T07:17:33;1.90;;;0.77;;
21181;SDS011;10749;46.296;7.524;2023-04-24T07:19:59;1.17;;;0.70;;
21181;SDS011;10749;46.296;7.524;2023-04-24T07:22:25;3.00;;;0.53;;
21181;SDS011;10749;46.296;7.524;2023-04-24T07:24:50;1.40;;;0.70;;
21181;SDS011;10749;46.296;7.524;2023-04-24T07:27:16;1.40;;;0.60;;
21181;SDS011;10749;46.296;7.524;2023-04-24T07:29:41;0.60;;;0.50;;
21181;SDS011;10749;46.296;7.524;2023-04-24T07:32:07;0.73;;;0.30;;
21181;SDS011;10749;46.296;7.524;2023-04-24T07:34:32;0.47;;;0.40;;
21181;SDS011;10749;46.296;7.524;2023-04-24T07:36:58;0.97;;;0.57;;
21181;SDS011;10749;46.296;7.524;2023-04-24T07:39:23;1.07;;;0.63;;
21181;SDS011;10749;46.296;7.524;2023-04-24T07:41:54;2.57;;;0.47;;
21181;SDS011;10749;46.296;7.524;2023-04-24T07:44:19;0.80;;;0.60;;
21181;SDS011;10749;46.296;7.524;2023-04-24T07:46:44;2.03;;;0.40;;
21181;SDS011;10749;46.296;7.524;2023-04-24T07:49:10;0.93;;;0.40;;
21181;SDS011;10749;46.296;7.524;2023-04-24T07:51:35;3.40;;;0.40;;
21181;SDS011;10749;46.296;7.524;2023-04-24T07:54:03;0.80;;;0.30;;
21181;SDS011;10749;46.296;7.524;2023-04-24T07:56:30;2.80;;;0.50;;
21181;SDS011;10749;46.296;7.524;2023-04-24T07:58:56;1.10;;;0.50;;
21181;SDS011;10749;46.296;7.524;2023-04-24T08:01:21;1.87;;;0.57;;
21181;SDS011;10749;46.296;7.524;2023-04-24T08:03:46;0.70;;;0.50;;
21181;SDS011;10749;46.296;7.524;2023-04-24T08:06:12;0.77;;;0.40;;
21181;SDS011;10749;46.296;7.524;2023-04-24T08:08:37;0.70;;;0.43;;
21181;SDS011;10749;46.296;7.524;2023-04-24T08:11:02;2.03;;;0.60;;
21181;SDS011;10749;46.296;7.524;2023-04-24T08:13:28;0.87;;;0.50;;
21181;SDS011;10749;46.296;7.524;2023-04-24T08:15:53;1.57;;;0.40;;
21181;SDS011;10749;46.296;7.524;2023-04-24T08:18:18;2.50;;;0.40;;
21181;SDS011;10749;46.296;7.524;2023-04-24T08:20:44;0.60;;;0.40;;
21181;SDS011;10749;46.296;7.524;2023-04-24T08:23:10;0.70;;;0.40;;
21181;SDS011;10749;46.296;7.524;2023-04-24T08:25:35;1.40;;;0.53;;
21181;SDS011;10749;46.296;7.524;2023-04-24T08:28:05;0.43;;;0.30;;
21181;SDS011;10749;46.296;7.524;2023-04-24T08:30:31;1.20;;;0.50;;
21181;SDS011;10749;46.296;7.524;2023-04-24T08:32:56;0.57;;;0.43;;
21181;SDS011;10749;46.296;7.524;2023-04-24T08:35:22;0.57;;;0.30;;
21181;SDS011;10749;46.296;7.524;2023-04-24T08:37:47;0.60;;;0.33;;
21181;SDS011;10749;46.296;7.524;2023-04-24T08:40:14;2.53;;;0.40;;
21181;SDS011;10749;46.296;7.524;2023-04-24T08:42:41;0.70;;;0.33;;
21181;SDS011;10749;46.296;7.524;2023-04-24T08:45:11;1.23;;;0.40;;
21181;SDS011;10749;46.296;7.524;2023-04-24T08:47:37;1.33;;;0.30;;
21181;SDS011;10749;46.296;7.524;2023-04-24T08:50:04;0.40;;;0.20;;
21181;SDS011;10749;46.296;7.524;2023-04-24T08:52:32;0.40;;;0.27;;
21181;SDS011;10749;46.296;7.524;2023-04-24T08:54:58;1.40;;;0.30;;
21181;SDS011;10749;46.296;7.524;2023-04-24T08:57:25;1.17;;;0.30;;
21181;SDS011;10749;46.296;7.524;2023-04-24T08:59:51;0.27;;;0.20;;
21181;SDS011;10749;46.296;7.524;2023-04-24T09:02:17;0.47;;;0.13;;
21181;SDS011;10749;46.296;7.524;2023-04-24T09:04:43;2.20;;;0.30;;
21181;SDS011;10749;46.296;7.524;2023-04-24T09:07:10;0.40;;;0.20;;
21181;SDS011;10749;46.296;7.524;2023-04-24T09:09:37;0.33;;;0.20;;
21181;SDS011;10749;46.296;7.524;2023-04-24T09:12:03;0.40;;;0.30;;
21181;SDS011;10749;46.296;7.524;2023-04-24T09:14:28;2.20;;;0.20;;
21181;SDS011;10749;46.296;7.524;2023-04-24T09:16:56;0.40;;;0.20;;
21181;SDS011;10749;46.296;7.524;2023-04-24T09:19:21;0.67;;;0.17;;
21181;SDS011;10749;46.296;7.524;2023-04-24T09:21:47;0.40;;;0.20;;
21181;SDS011;10749;46.296;7.524;2023-04-24T09:24:16;0.43;;;0.30;;
21181;SDS011;10749;46.296;7.524;2023-04-24T09:26:47;0.23;;;0.20;;
21181;SDS011;10749;46.296;7.524;2023-04-24T09:29:14;0.60;;;0.30;;
21181;SDS011;10749;46.296;7.524;2023-04-24T09:31:41;0.20;;;0.10;;
21181;SDS011;10749;46.296;7.524;2023-04-24T09:34:06;0.20;;;0.10;;
21181;SDS011;10749;46.296;7.524;2023-04-24T09:36:32;0.20;;;0.10;;
21181;SDS011;10749;46.296;7.524;2023-04-24T09:39:02;1.23;;;0.20;;
21181;SDS011;10749;46.296;7.524;2023-04-24T09:41:29;0.93;;;0.20;;
21181;SDS011;10749;46.296;7.524;2023-04-24T09:43:55;0.43;;;0.20;;
21181;SDS011;10749;46.296;7.524;2023-04-24T09:46:21;0.33;;;0.20;;
21181;SDS011;10749;46.296;7.524;2023-04-24T09:48:53;1.03;;;0.23;;
21181;SDS011;10749;46.296;7.524;2023-04-24T09:51:19;0.23;;;0.10;;
21181;SDS011;10749;46.296;7.524;2023-04-24T09:53:59;0.50;;;0.30;;
21181;SDS011;10749;46.296;7.524;2023-04-24T09:56:25;2.20;;;0.30;;
21181;SDS011;10749;46.296;7.524;2023-04-24T09:58:51;0.73;;;0.30;;
21181;SDS011;10749;46.296;7.524;2023-04-24T10:01:16;1.40;;;0.20;;
21181;SDS011;10749;46.296;7.524;2023-04-24T10:03:54;0.57;;;0.20;;
21181;SDS011;10749;46.296;7.524;2023-04-24T10:06:20;0.73;;;0.30;;
21181;SDS011;10749;46.296;7.524;2023-04-24T10:08:46;0.30;;;0.30;;
21181;SDS011;10749;46.296;7.524;2023-04-24T10:11:13;0.83;;;0.30;;
21181;SDS011;10749;46.296;7.524;2023-04-24T10:13:39;0.70;;;0.20;;
21181;SDS011;10749;46.296;7.524;2023-04-24T10:16:05;0.57;;;0.30;;
21181;SDS011;10749;46.296;7.524;2023-04-24T10:18:31;0.40;;;0.20;;
21181;SDS011;10749;46.296;7.524;2023-04-24T10:20:57;1.40;;;0.27;;
21181;SDS011;10749;46.296;7.524;2023-04-24T10:23:25;1.60;;;0.40;;
21181;SDS011;10749;46.296;7.524;2023-04-24T10:25:50;0.40;;;0.20;;
21181;SDS011;10749;46.296;7.524;2023-04-24T10:28:17;0.80;;;0.27;;
21181;SDS011;10749;46.296;7.524;2023-04-24T10:30:44;0.43;;;0.20;;
21181;SDS011;10749;46.296;7.524;2023-04-24T10:33:10;0.83;;;0.27;;
21181;SDS011;10749;46.296;7.524;2023-04-24T10:35:38;0.40;;;0.20;;
21181;SDS011;10749;46.296;7.524;2023-04-24T10:38:12;0.73;;;0.30;;
21181;SDS011;10749;46.296;7.524;2023-04-24T10:40:38;0.50;;;0.30;;
21181;SDS011;10749;46.296;7.524;2023-04-24T10:43:04;2.00;;;0.47;;
21181;SDS011;10749;46.296;7.524;2023-04-24T10:45:34;0.87;;;0.50;;
21181;SDS011;10749;46.296;7.524;2023-04-24T10:50:45;0.80;;;0.30;;
21181;SDS011;10749;46.296;7.524;2023-04-24T10:53:16;0.30;;;0.20;;
21181;SDS011;10749;46.296;7.524;2023-04-24T10:58:10;0.47;;;0.30;;
21181;SDS011;10749;46.296;7.524;2023-04-24T11:00:37;1.07;;;0.30;;
21181;SDS011;10749;46.296;7.524;2023-04-24T11:03:06;1.23;;;0.30;;
21181;SDS011;10749;46.296;7.524;2023-04-24T11:05:48;1.05;;;0.30;;
21181;SDS011;10749;46.296;7.524;2023-04-24T11:08:27;0.75;;;0.30;;
21181;SDS011;10749;46.296;7.524;2023-04-24T11:11:01;0.47;;;0.30;;
21181;SDS011;10749;46.296;7.524;2023-04-24T11:14:14;0.40;;;0.20;;
21181;SDS011;10749;46.296;7.524;2023-04-24T11:18:52;0.65;;;0.30;;
21181;SDS011;10749;46.296;7.524;2023-04-24T11:21:25;1.20;;;0.20;;
21181;SDS011;10749;46.296;7.524;2023-04-24T11:23:56;1.85;;;0.30;;
21181;SDS011;10749;46.296;7.524;2023-04-24T11:26:22;0.30;;;0.30;;
21181;SDS011;10749;46.296;7.524;2023-04-24T11:28:55;1.08;;;0.30;;
21181;SDS011;10749;46.296;7.524;2023-04-24T11:31:38;1.00;;;0.50;;
21181;SDS011;10749;46.296;7.524;2023-04-24T11:34:13;0.35;;;0.20;;
21181;SDS011;10749;46.296;7.524;2023-04-24T11:36:42;0.85;;;0.20;;
21181;SDS011;10749;46.296;7.524;2023-04-24T11:39:09;0.60;;;0.40;;
21181;SDS011;10749;46.296;7.524;2023-04-24T11:41:36;0.40;;;0.30;;
21181;SDS011;10749;46.296;7.524;2023-04-24T11:44:02;2.17;;;0.22;;
21181;SDS011;10749;46.296;7.524;2023-04-24T11:46:29;0.35;;;0.20;;
21181;SDS011;10749;46.296;7.524;2023-04-24T11:48:55;1.30;;;0.30;;
21181;SDS011;10749;46.296;7.524;2023-04-24T11:51:25;0.20;;;0.20;;
21181;SDS011;10749;46.296;7.524;2023-04-24T11:53:55;0.93;;;0.25;;
21181;SDS011;10749;46.296;7.524;2023-04-24T11:56:21;0.45;;;0.30;;
21181;SDS011;10749;46.296;7.524;2023-04-24T11:58:47;0.45;;;0.20;;
21181;SDS011;10749;46.296;7.524;2023-04-24T12:01:13;0.77;;;0.30;;
21181;SDS011;10749;46.296;7.524;2023-04-24T12:03:38;0.75;;;0.30;;
21181;SDS011;10749;46.296;7.524;2023-04-24T12:06:04;0.20;;;0.20;;
21181;SDS011;10749;46.296;7.524;2023-04-24T12:08:34;1.40;;;0.47;;
21181;SDS011;10749;46.296;7.524;2023-04-24T12:11:00;1.48;;;0.38;;
21181;SDS011;10749;46.296;7.524;2023-04-24T12:13:26;1.50;;;0.50;;
21181;SDS011;10749;46.296;7.524;2023-04-24T12:15:51;0.40;;;0.20;;
21181;SDS011;10749;46.296;7.524;2023-04-24T12:18:16;1.00;;;0.25;;
21181;SDS011;10749;46.296;7.524;2023-04-24T12:20:42;0.40;;;0.28;;
21181;SDS011;10749;46.296;7.524;2023-04-24T12:23:07;0.75;;;0.22;;
21181;SDS011;10749;46.296;7.524;2023-04-24T12:25:33;0.43;;;0.30;;
21181;SDS011;10749;46.296;7.524;2023-04-24T12:30:27;1.08;;;0.20;;
21181;SDS011;10749;46.296;7.524;2023-04-24T12:32:56;1.42;;;0.50;;
21181;SDS011;10749;46.296;7.524;2023-04-24T12:35:23;1.70;;;0.30;;
21181;SDS011;10749;46.296;7.524;2023-04-24T12:37:50;1.55;;;0.20;;
21181;SDS011;10749;46.296;7.524;2023-04-24T12:40:16;0.90;;;0.40;;
21181;SDS011;10749;46.296;7.524;2023-04-24T12:42:44;2.13;;;0.30;;
21181;SDS011;10749;46.296;7.524;2023-04-24T12:45:10;1.65;;;0.38;;
21181;SDS011;10749;46.296;7.524;2023-04-24T12:47:37;3.20;;;0.43;;
21181;SDS011;10749;46.296;7.524;2023-04-24T12:50:03;0.90;;;0.35;;
21181;SDS011;10749;46.296;7.524;2023-04-24T12:52:29;2.50;;;0.50;;
21181;SDS011;10749;46.296;7.524;2023-04-24T12:54:56;0.50;;;0.30;;
21181;SDS011;10749;46.296;7.524;2023-04-24T12:57:23;2.65;;;0.35;;
21181;SDS011;10749;46.296;7.524;2023-04-24T12:59:50;0.82;;;0.40;;
21181;SDS011;10749;46.296;7.524;2023-04-24T13:02:15;1.23;;;0.30;;
21181;SDS011;10749;46.296;7.524;2023-04-24T13:04:44;2.88;;;0.40;;
21181;SDS011;10749;46.296;7.524;2023-04-24T13:07:11;1.20;;;0.30;;
21181;SDS011;10749;46.296;7.524;2023-04-24T13:09:37;0.90;;;0.32;;
21181;SDS011;10749;46.296;7.524;2023-04-24T13:12:03;1.90;;;0.40;;
21181;SDS011;10749;46.296;7.524;2023-04-24T13:14:30;1.60;;;0.50;;
21181;SDS011;10749;46.296;7.524;2023-04-24T13:16:55;0.88;;;0.30;;
21181;SDS011;10749;46.296;7.524;2023-04-24T13:19:21;0.52;;;0.40;;
21181;SDS011;10749;46.296;7.524;2023-04-24T13:21:46;0.65;;;0.30;;
21181;SDS011;10749;46.296;7.524;2023-04-24T13:24:11;1.23;;;0.40;;
21181;SDS011;10749;46.296;7.524;2023-04-24T13:26:37;1.67;;;0.47;;
21181;SDS011;10749;46.296;7.524;2023-04-24T13:29:03;1.58;;;0.60;;
21181;SDS011;10749;46.296;7.524;2023-04-24T13:31:28;1.25;;;0.50;;
21181;SDS011;10749;46.296;7.524;2023-04-24T13:33:54;0.73;;;0.40;;
21181;SDS011;10749;46.296;7.524;2023-04-24T13:36:19;1.83;;;0.50;;
21181;SDS011;10749;46.296;7.524;2023-04-24T13:38:44;1.00;;;0.50;;
21181;SDS011;10749;46.296;7.524;2023-04-24T13:41:10;0.68;;;0.50;;
21181;SDS011;10749;46.296;7.524;2023-04-24T13:43:35;1.17;;;0.40;;
21181;SDS011;10749;46.296;7.524;2023-04-24T13:46:00;0.65;;;0.40;;
21181;SDS011;10749;46.296;7.524;2023-04-24T13:48:27;1.52;;;0.50;;
21181;SDS011;10749;46.296;7.524;2023-04-24T13:50:53;0.50;;;0.40;;
21181;SDS011;10749;46.296;7.524;2023-04-24T13:53:19;1.55;;;0.70;;
21181;SDS011;10749;46.296;7.524;2023-04-24T13:55:44;0.93;;;0.40;;
21181;SDS011;10749;46.296;7.524;2023-04-24T13:58:09;1.55;;;0.60;;
21181;SDS011;10749;46.296;7.524;2023-04-24T14:00:35;1.58;;;0.40;;
21181;SDS011;10749;46.296;7.524;2023-04-24T14:03:00;2.95;;;0.47;;
21181;SDS011;10749;46.296;7.524;2023-04-24T14:05:26;1.90;;;0.57;;
21181;SDS011;10749;46.296;7.524;2023-04-24T14:07:51;1.55;;;0.57;;
21181;SDS011;10749;46.296;7.524;2023-04-24T14:10:16;1.48;;;0.55;;
21181;SDS011;10749;46.296;7.524;2023-04-24T14:12:42;0.77;;;0.57;;
21181;SDS011;10749;46.296;7.524;2023-04-24T14:15:07;1.02;;;0.57;;
21181;SDS011;10749;46.296;7.524;2023-04-24T14:17:33;1.90;;;0.47;;
21181;SDS011;10749;46.296;7.524;2023-04-24T14:19:59;0.80;;;0.40;;
21181;SDS011;10749;46.296;7.524;2023-04-24T14:22:25;0.85;;;0.50;;
21181;SDS011;10749;46.296;7.524;2023-04-24T14:24:50;2.22;;;0.60;;
21181;SDS011;10749;46.296;7.524;2023-04-24T14:27:16;0.80;;;0.38;;
21181;SDS011;10749;46.296;7.524;2023-04-24T14:29:41;1.20;;;0.60;;
21181;SDS011;10749;46.296;7.524;2023-04-24T14:32:06;1.13;;;0.68;;
21181;SDS011;10749;46.296;7.524;2023-04-24T14:34:33;2.00;;;0.80;;
21181;SDS011;10749;46.296;7.524;2023-04-24T14:36:59;2.47;;;0.80;;
21181;SDS011;10749;46.296;7.524;2023-04-24T14:39:25;1.27;;;0.45;;
21181;SDS011;10749;46.296;7.524;2023-04-24T14:41:50;1.52;;;0.60;;
21181;SDS011;10749;46.296;7.524;2023-04-24T14:44:15;0.60;;;0.50;;
21181;SDS011;10749;46.296;7.524;2023-04-24T14:46:41;2.05;;;0.60;;
21181;SDS011;10749;46.296;7.524;2023-04-24T14:49:07;2.10;;;0.68;;
21181;SDS011;10749;46.296;7.524;2023-04-24T14:51:34;0.90;;;0.50;;